createdAt,value
2022-08-11T00:00:22.941Z,59.76
2022-08-11T00:07:19.654Z,60.11
2022-08-11T00:13:54.295Z,60.37
2022-08-11T00:20:46.358Z,60.72
2022-08-11T00:27:41.629Z,61.12
2022-08-11T00:34:36.323Z,61.36
2022-08-11T00:41:27.808Z,61.91
2022-08-11T00:48:22.193Z,61.95
2022-08-11T00:55:34.203Z,62.12
2022-08-11T01:02:39.202Z,62.43
2022-08-11T01:09:34.259Z,62.63
2022-08-11T01:16:45.721Z,63.12
2022-08-11T01:23:36.292Z,63.48
2022-08-11T01:30:48.278Z,63.83
2022-08-11T01:38:04.301Z,64.10
2022-08-11T01:45:19.183Z,64.34
2022-08-11T01:52:38.297Z,64.81
2022-08-11T01:59:51.084Z,65.10
2022-08-11T02:06:53.789Z,65.36
2022-08-11T02:14:01.237Z,65.51
2022-08-11T02:20:45.847Z,65.92
2022-08-11T02:27:38.722Z,66.24
2022-08-11T02:34:59.611Z,66.34
2022-08-11T02:42:07.696Z,66.68
2022-08-11T02:49:31.004Z,66.95
2022-08-11T02:56:39.780Z,67.33
2022-08-11T03:03:48.993Z,67.55
2022-08-11T03:11:07.472Z,67.74
2022-08-11T03:17:57.297Z,68.04
2022-08-11T03:24:58.303Z,68.24
2022-08-11T03:31:33.408Z,68.30
2022-08-11T03:38:18.555Z,68.55
2022-08-11T03:45:41.880Z,68.77
2022-08-11T03:52:54.566Z,69.00
2022-08-11T03:59:44.744Z,69.26
2022-08-11T04:05:56.064Z,69.83
2022-08-11T04:13:02.018Z,69.67
2022-08-11T04:20:17.213Z,69.60
2022-08-11T04:27:37.380Z,69.63
2022-08-11T04:34:35.262Z,69.67
2022-08-11T04:41:36.893Z,69.65
2022-08-11T04:48:33.847Z,69.61
2022-08-11T04:55:22.341Z,69.73
2022-08-11T05:02:17.054Z,69.68
2022-08-11T05:09:23.599Z,69.30
2022-08-11T05:15:58.817Z,69.08
2022-08-11T05:23:01.418Z,68.60
2022-08-11T05:29:46.482Z,68.18
2022-08-11T05:36:40.207Z,67.76
2022-08-11T05:42:57.909Z,67.25
2022-08-11T05:49:59.897Z,66.91
2022-08-11T05:56:51.676Z,66.58
2022-08-11T06:03:34.960Z,66.31
2022-08-11T06:10:40.276Z,66.10
2022-08-11T06:17:38.918Z,65.50
2022-08-11T06:24:22.005Z,64.99
2022-08-11T06:30:25.296Z,64.44
2022-08-11T06:37:24.574Z,64.19
2022-08-11T06:43:55.306Z,63.59
2022-08-11T06:49:41.588Z,63.08
2022-08-11T06:55:57.640Z,62.90
2022-08-11T07:01:57.769Z,62.32
2022-08-11T07:07:30.975Z,61.48
2022-08-11T07:13:56.775Z,61.30
2022-08-11T07:19:45.718Z,60.61
2022-08-11T07:25:36.021Z,60.09
2022-08-11T07:31:10.498Z,59.40
2022-08-11T07:36:35.774Z,58.53
2022-08-11T07:42:29.074Z,57.92
2022-08-11T07:48:00.172Z,56.99
2022-08-11T07:53:58.619Z,55.83
2022-08-11T08:00:00.641Z,55.41
2022-08-11T08:06:36.168Z,54.69
2022-08-11T08:12:05.537Z,53.58
2022-08-11T08:18:09.138Z,52.50
2022-08-11T08:24:14.055Z,50.78
2022-08-11T08:29:56.501Z,49.50
2022-08-11T08:35:55.929Z,48.70
2022-08-11T08:41:36.925Z,47.89
2022-08-11T08:47:06.945Z,47.30
2022-08-11T08:52:44.062Z,45.75
2022-08-11T08:58:10.793Z,45.10
2022-08-11T09:04:02.782Z,44.72
2022-08-11T09:09:29.081Z,44.48
2022-08-11T09:15:12.067Z,44.39
2022-08-11T09:20:27.857Z,44.39
2022-08-11T09:26:37.393Z,44.59
2022-08-11T09:32:09.100Z,44.88
2022-08-11T09:37:54.287Z,45.46
2022-08-11T09:43:44.379Z,45.58
2022-08-11T09:48:54.502Z,44.84
2022-08-11T09:54:07.970Z,43.99
2022-08-11T09:59:32.207Z,43.90
2022-08-11T10:05:20.678Z,43.74
2022-08-11T10:10:46.165Z,43.39
2022-08-11T10:16:16.328Z,42.68
2022-08-11T10:22:17.235Z,40.77
2022-08-11T10:28:16.810Z,41.00
2022-08-11T10:34:29.217Z,40.45
2022-08-11T10:40:28.871Z,40.22
2022-08-11T10:46:04.563Z,40.53
2022-08-11T10:51:51.051Z,39.85
2022-08-11T10:58:04.632Z,39.95
2022-08-11T11:03:42.219Z,39.63
2022-08-11T11:09:03.703Z,39.51
2022-08-11T11:14:45.736Z,39.40
2022-08-11T11:20:34.556Z,39.28
2022-08-11T11:26:10.452Z,38.45
2022-08-11T11:31:48.669Z,38.50
2022-08-11T11:37:01.099Z,38.01
2022-08-11T11:42:20.039Z,37.59
2022-08-11T11:47:23.350Z,37.03
2022-08-11T11:52:27.047Z,36.30
2022-08-11T11:57:59.159Z,35.94
2022-08-11T12:03:26.796Z,36.32
2022-08-11T12:08:38.184Z,36.30
2022-08-11T12:13:50.570Z,35.99
2022-08-11T12:19:18.832Z,36.22
2022-08-11T12:24:51.127Z,36.11
2022-08-11T12:29:57.501Z,36.40
2022-08-11T12:35:20.698Z,36.64
2022-08-11T12:41:19.366Z,36.86
2022-08-11T12:46:53.464Z,36.90
2022-08-11T12:52:15.709Z,36.63
2022-08-11T12:58:04.639Z,37.17
2022-08-11T13:03:38.968Z,37.78
2022-08-11T13:09:49.786Z,37.30
2022-08-11T13:15:58.839Z,36.50
2022-08-11T13:21:26.475Z,36.43
2022-08-11T13:26:50.289Z,36.30
2022-08-11T13:32:01.112Z,36.29
2022-08-11T13:37:06.316Z,36.61
2022-08-11T13:42:44.246Z,37.03
2022-08-11T13:47:55.264Z,36.98
2022-08-11T13:53:35.587Z,37.34
2022-08-11T13:59:04.253Z,36.86
2022-08-11T14:04:30.584Z,36.25
2022-08-11T14:10:21.039Z,36.33
2022-08-11T14:15:48.443Z,36.32
2022-08-11T14:21:43.463Z,36.22
2022-08-11T14:28:29.586Z,35.47
2022-08-11T14:33:16.607Z,35.12
2022-08-11T14:39:47.242Z,35.69
2022-08-11T14:45:25.900Z,38.06
2022-08-11T14:51:36.700Z,41.34
2022-08-11T14:57:19.959Z,47.48
2022-08-11T15:03:28.195Z,53.54
2022-08-11T15:08:55.907Z,57.44
2022-08-11T15:14:08.281Z,61.03
2022-08-11T15:19:36.678Z,66.98
2022-08-11T15:24:44.150Z,71.93
2022-08-11T15:30:33.441Z,74.55
2022-08-11T15:36:00.102Z,76.88
2022-08-11T15:41:35.785Z,77.99
2022-08-11T15:47:04.089Z,78.97
2022-08-11T15:52:50.128Z,79.95
2022-08-11T15:58:44.391Z,80.84
2022-08-11T16:04:13.326Z,81.83
2022-08-11T16:10:34.272Z,82.76
2022-08-11T16:16:17.400Z,83.75
2022-08-11T16:21:54.465Z,84.33
2022-08-11T16:27:24.493Z,85.45
2022-08-11T16:32:49.394Z,86.18
2022-08-11T16:38:35.799Z,86.41
2022-08-11T16:44:37.699Z,86.57
2022-08-11T16:50:24.269Z,86.96
2022-08-11T16:56:03.192Z,87.24
2022-08-11T17:01:35.498Z,87.66
2022-08-11T17:07:40.164Z,87.69
2022-08-11T17:13:58.397Z,87.64
2022-08-11T17:20:40.730Z,87.74
2022-08-11T17:26:25.754Z,88.20
2022-08-11T17:31:57.300Z,88.52
2022-08-11T17:37:03.162Z,88.59
2022-08-11T17:42:24.906Z,88.97
2022-08-11T17:48:20.206Z,89.28
2022-08-11T17:54:16.932Z,89.77
2022-08-11T17:59:32.258Z,90.30
2022-08-11T18:05:33.579Z,90.68
2022-08-11T18:12:07.065Z,90.91
2022-08-11T18:19:08.218Z,91.52
2022-08-11T18:25:45.240Z,91.82
2022-08-11T18:32:00.995Z,92.19
2022-08-11T18:38:08.456Z,92.59
2022-08-11T18:43:41.474Z,93.14
2022-08-11T18:50:01.783Z,93.51
2022-08-11T18:55:20.428Z,94.23
2022-08-11T19:00:48.507Z,94.69
2022-08-11T19:06:55.140Z,95.22
2022-08-11T19:12:31.896Z,95.40
2022-08-11T19:18:24.854Z,95.66
2022-08-11T19:24:02.868Z,96.72
2022-08-11T19:30:07.092Z,97.43
2022-08-11T19:35:10.543Z,96.79
2022-08-11T19:40:41.845Z,96.82
2022-08-11T19:46:11.409Z,96.83
2022-08-11T19:51:33.628Z,96.88
2022-08-11T19:57:04.245Z,96.86
2022-08-11T20:02:48.561Z,96.96
2022-08-11T20:09:16.275Z,97.61
2022-08-11T20:14:48.970Z,97.60
2022-08-11T20:20:39.204Z,97.45
2022-08-11T20:26:30.793Z,97.86
2022-08-11T20:32:09.458Z,98.10
2022-08-11T20:37:54.700Z,98.63
2022-08-11T20:44:07.469Z,98.71
2022-08-11T20:50:02.924Z,98.64
2022-08-11T20:56:10.939Z,98.96
2022-08-11T21:09:00.819Z,98.97
2022-08-11T21:15:38.681Z,99.16
2022-08-11T21:22:03.500Z,99.27
2022-08-11T21:28:34.516Z,99.42
2022-08-11T21:34:55.919Z,99.69
2022-08-11T21:41:41.463Z,99.86
2022-08-11T21:48:38.206Z,99.87
2022-08-11T21:54:53.024Z,99.94
2022-08-11T22:01:34.759Z,100.00
2022-08-11T22:08:38.208Z,100.00
2022-08-11T22:15:40.099Z,100.00
2022-08-11T22:22:52.127Z,100.00
2022-08-11T22:29:50.767Z,100.00
2022-08-11T22:36:55.437Z,100.00
2022-08-11T22:43:46.136Z,100.00
2022-08-11T22:50:48.147Z,100.00
2022-08-11T22:58:00.156Z,100.00
2022-08-11T23:05:03.245Z,100.00
2022-08-11T23:12:04.719Z,100.00
2022-08-11T23:18:52.475Z,100.00
2022-08-11T23:25:43.827Z,100.00
2022-08-11T23:32:34.781Z,100.00
2022-08-11T23:39:06.295Z,100.00
2022-08-11T23:45:04.180Z,100.00
2022-08-11T23:51:58.530Z,100.00
2022-08-11T23:58:31.982Z,100.00
